Anna, Illinois
Current Conditions -  °F | °C
As of 11:52 AM on Saturday 25 Oct 2014 (Local Time) from KMDH Reporting Station
Clear Clear  
Wind Chill: 23°   Ceiling: Unl
Heat Index: 23°   Visibility: 10mi
Dew Point: 16°   Wind: 0mph
Humidity: 64%   Direction: NA
Pressure: 30.03"   Gusts: NA
Location:  37.46°N, 89.25°W
Report Text: KMDH 251652Z 00000KT 10SM CLR 23/16 A3003 RMK AO2 SLP167 T02330161
Loading
Personal Weather Stations






























Interactive Weather Map
Tropical Storm Tracking
New forecast layout! Learn more

10-Day Weather Forecast

Advertisements
Track Severe Weather on mobile